Time;durP1;ratioP1;P1;durP2;ratioP2;P2;SDS_P1;SDS_P2;PMS_P1;PMS_P2;Temp;Humidity;BMP_temperature;BMP_pressure;BME280_temperature;BME280_humidity;BME280_pressure;Samples;Min_cycle;Max_cycle;Signal;HPM_P1;HPM_P2
2022/10/02 00:02:02;;;;;;;4.40;1.02;;;14.70;99.90;;;;;;4936618;29;20035;-58
2022/10/02 00:04:53;;;;;;;10.60;1.15;;;14.70;99.90;;;;;;4943844;28;20407;-59
2022/10/02 00:07:33;;;;;;;9.30;1.20;;;14.70;99.90;;;;;;4922538;29;20091;-59
2022/10/02 00:10:11;;;;;;;2.30;0.70;;;14.60;99.90;;;;;;4930957;29;20520;-59
2022/10/02 00:12:37;;;;;;;4.38;1.45;;;14.60;99.90;;;;;;4929364;29;20741;-60
2022/10/02 00:15:14;;;;;;;7.55;1.20;;;14.60;99.90;;;;;;4941584;29;20087;-58
2022/10/02 00:17:45;;;;;;;8.13;0.95;;;14.60;99.90;;;;;;4930400;29;20034;-59
2022/10/02 00:20:13;;;;;;;4.65;1.25;;;14.60;99.90;;;;;;4936621;28;20070;-57
2022/10/02 00:22:49;;;;;;;9.27;1.25;;;14.60;99.90;;;;;;4933454;29;20093;-57
2022/10/02 00:25:38;;;;;;;8.20;0.75;;;14.60;99.90;;;;;;4930922;29;20039;-59
2022/10/02 00:28:23;;;;;;;5.55;0.77;;;14.60;99.90;;;;;;4931895;29;20046;-59
2022/10/02 00:31:22;;;;;;;5.95;1.10;;;14.50;99.90;;;;;;4923328;28;20518;-59
2022/10/02 00:33:59;;;;;;;6.78;1.45;;;14.50;99.90;;;;;;4970956;28;20043;-58
2022/10/02 00:36:46;;;;;;;2.58;0.52;;;14.50;99.90;;;;;;4969148;28;20023;-61
2022/10/02 00:39:21;;;;;;;4.63;0.68;;;14.50;99.90;;;;;;4980720;28;20098;-60
2022/10/02 00:41:55;;;;;;;9.55;1.77;;;14.50;99.90;;;;;;4981261;28;20475;-59
2022/10/02 00:44:42;;;;;;;3.20;0.77;;;14.40;99.90;;;;;;4969671;28;20070;-58
2022/10/02 00:47:39;;;;;;;4.57;1.02;;;14.40;99.90;;;;;;4969816;28;20536;-57
2022/10/02 00:50:29;;;;;;;8.55;0.80;;;14.40;99.90;;;;;;4963225;28;20027;-59
2022/10/02 00:53:03;;;;;;;4.25;1.02;;;14.30;99.90;;;;;;4985432;28;20104;-58
2022/10/02 00:55:32;;;;;;;6.60;1.33;;;14.20;99.90;;;;;;4982993;28;20056;-58
2022/10/02 00:58:23;;;;;;;4.25;0.80;;;14.20;99.90;;;;;;4977710;28;20042;-59
2022/10/02 01:01:04;;;;;;;4.07;0.83;;;14.20;99.90;;;;;;4968062;28;20042;-58
2022/10/02 01:03:39;;;;;;;6.00;1.33;;;14.10;99.90;;;;;;4961187;28;20308;-59
2022/10/02 01:06:07;;;;;;;1.55;0.65;;;14.10;99.90;;;;;;4970061;28;20027;-59
2022/10/02 01:08:35;;;;;;;6.20;1.00;;;14.10;99.90;;;;;;4973659;28;20026;-59
2022/10/02 01:11:01;;;;;;;4.95;0.70;;;14.10;99.90;;;;;;4977319;28;20540;-60
2022/10/02 01:13:28;;;;;;;7.57;2.25;;;14.10;99.90;;;;;;4973514;28;20471;-59
2022/10/02 01:15:58;;;;;;;5.82;0.55;;;14.10;99.90;;;;;;4982807;28;20037;-58
2022/10/02 01:18:23;;;;;;;4.03;0.50;;;14.10;99.90;;;;;;4982256;28;20034;-58
2022/10/02 01:20:52;;;;;;;5.20;1.10;;;14.10;99.90;;;;;;4974478;28;20031;-58
2022/10/02 01:23:44;;;;;;;7.18;1.00;;;14.10;99.90;;;;;;4982102;28;20030;-58
2022/10/02 01:26:10;;;;;;;5.53;0.77;;;14.20;99.90;;;;;;4987819;28;20029;-59
2022/10/02 01:28:36;;;;;;;6.25;0.65;;;14.20;99.90;;;;;;4975780;28;20077;-59
2022/10/02 01:31:06;;;;;;;5.78;1.10;;;14.10;99.90;;;;;;4980326;28;20105;-59
2022/10/02 01:33:33;;;;;;;3.88;0.50;;;14.10;99.90;;;;;;4977775;28;20166;-59
2022/10/02 01:35:59;;;;;;;5.90;0.70;;;14.10;99.90;;;;;;4979415;28;20090;-59
2022/10/02 01:38:26;;;;;;;3.88;0.88;;;14.10;99.90;;;;;;4970977;28;20023;-58
2022/10/02 01:40:52;;;;;;;3.58;1.00;;;14.00;99.90;;;;;;4979120;28;20034;-59
2022/10/02 01:43:55;;;;;;;2.80;0.68;;;13.90;99.90;;;;;;4987008;28;20483;-58
2022/10/02 01:46:52;;;;;;;6.47;0.70;;;13.90;99.90;;;;;;4950371;28;20031;-59
2022/10/02 01:49:32;;;;;;;5.45;0.95;;;13.80;99.90;;;;;;4949342;28;20027;-58
2022/10/02 01:52:35;;;;;;;10.00;0.77;;;13.80;99.90;;;;;;4951161;29;20039;-58
2022/10/02 01:55:21;;;;;;;6.25;0.60;;;13.80;99.90;;;;;;4949924;28;20031;-59
2022/10/02 01:58:11;;;;;;;2.92;0.90;;;13.80;99.90;;;;;;4950398;28;20031;-58
2022/10/02 02:00:49;;;;;;;5.55;1.45;;;13.80;99.90;;;;;;4950357;28;20134;-62
2022/10/02 02:03:27;;;;;;;5.85;1.23;;;13.80;99.90;;;;;;4952345;28;20027;-58
2022/10/02 02:06:16;;;;;;;2.78;0.80;;;13.80;99.90;;;;;;4953718;28;20380;-59
2022/10/02 02:08:53;;;;;;;3.50;0.82;;;13.80;99.90;;;;;;4954384;28;20027;-61
2022/10/02 02:11:21;;;;;;;4.57;1.20;;;13.70;99.90;;;;;;4956096;28;20060;-61
2022/10/02 02:14:11;;;;;;;7.63;0.85;;;13.70;99.90;;;;;;4952510;28;20521;-59
2022/10/02 02:17:01;;;;;;;2.95;1.08;;;13.70;99.90;;;;;;4959158;28;20094;-58
2022/10/02 02:19:34;;;;;;;3.55;0.93;;;13.70;99.90;;;;;;4952085;28;20031;-59
2022/10/02 02:22:04;;;;;;;2.58;0.57;;;13.70;99.90;;;;;;4975962;28;20035;-58
2022/10/02 02:24:33;;;;;;;8.25;0.73;;;13.70;99.90;;;;;;4974010;28;20497;-59
2022/10/02 02:27:01;;;;;;;7.07;1.33;;;13.60;99.90;;;;;;4978015;28;20059;-58
2022/10/02 02:29:31;;;;;;;2.70;0.45;;;13.60;99.90;;;;;;4970229;28;20492;-62
2022/10/02 02:31:58;;;;;;;2.13;0.93;;;13.60;99.90;;;;;;4971973;28;20058;-58
2022/10/02 02:34:42;;;;;;;5.57;0.70;;;13.60;99.90;;;;;;4971933;28;20035;-58
2022/10/02 02:37:15;;;;;;;3.03;0.60;;;13.60;99.90;;;;;;4967636;28;20041;-61
2022/10/02 02:39:45;;;;;;;5.13;1.05;;;13.60;99.90;;;;;;4971813;28;20027;-59
2022/10/02 02:42:13;;;;;;;4.22;0.65;;;13.60;99.90;;;;;;4977703;28;20050;-59
2022/10/02 02:44:44;;;;;;;3.13;0.55;;;13.60;99.90;;;;;;4980613;28;20402;-58
2022/10/02 02:47:22;;;;;;;15.27;1.13;;;13.60;99.90;;;;;;4971600;28;20475;-59
2022/10/02 02:50:07;;;;;;;4.78;0.70;;;13.70;99.90;;;;;;4969243;28;20034;-59
2022/10/02 02:52:40;;;;;;;7.75;0.75;;;13.80;99.90;;;;;;4971113;28;20054;-59
2022/10/02 02:55:14;;;;;;;3.10;0.50;;;13.80;99.90;;;;;;4979519;28;20038;-58
2022/10/02 02:57:54;;;;;;;2.08;0.32;;;13.90;99.90;;;;;;4977221;28;20034;-58
2022/10/02 03:00:21;;;;;;;2.28;0.47;;;13.90;99.90;;;;;;4970815;28;20034;-59
2022/10/02 03:02:49;;;;;;;3.40;0.40;;;14.00;99.90;;;;;;4987820;28;20117;-59
2022/10/02 03:05:17;;;;;;;4.13;0.55;;;14.00;99.90;;;;;;4977729;28;20058;-57
2022/10/02 03:07:55;;;;;;;3.60;0.65;;;14.10;99.90;;;;;;4983529;28;20121;-58
2022/10/02 03:10:36;;;;;;;4.30;0.52;;;14.10;99.90;;;;;;4961709;28;20035;-60
2022/10/02 03:13:32;;;;;;;5.55;1.40;;;14.10;99.90;;;;;;4968646;28;20039;-59
2022/10/02 03:16:19;;;;;;;4.65;1.20;;;14.10;99.90;;;;;;4968995;28;20454;-58
2022/10/02 03:19:14;;;;;;;5.07;1.25;;;14.10;99.90;;;;;;4972435;28;20395;-58
2022/10/02 03:21:49;;;;;;;2.25;0.40;;;14.20;99.90;;;;;;4973505;28;20035;-59
2022/10/02 03:24:32;;;;;;;3.17;0.70;;;14.10;99.90;;;;;;4978739;28;20397;-57
2022/10/02 03:27:11;;;;;;;2.55;0.55;;;14.20;99.90;;;;;;4979241;28;20458;-58
2022/10/02 03:29:48;;;;;;;6.72;2.33;;;14.10;99.90;;;;;;4965662;28;20027;-58
2022/10/02 03:32:17;;;;;;;1.20;0.38;;;14.10;99.90;;;;;;4969562;28;20031;-58
2022/10/02 03:34:43;;;;;;;2.90;0.45;;;14.10;99.90;;;;;;4971900;28;20518;-57
2022/10/02 03:37:09;;;;;;;4.05;0.55;;;14.10;99.90;;;;;;4975046;28;20027;-59
2022/10/02 03:39:42;;;;;;;3.95;0.68;;;14.00;99.90;;;;;;4970768;28;20037;-58
2022/10/02 03:42:14;;;;;;;7.40;0.93;;;14.00;99.90;;;;;;4976938;28;20166;-58
2022/10/02 03:44:40;;;;;;;4.03;0.88;;;13.90;99.90;;;;;;4971945;28;20039;-58
2022/10/02 03:47:05;;;;;;;2.33;0.60;;;13.90;99.90;;;;;;4979025;28;20026;-59
2022/10/02 03:49:31;;;;;;;6.22;0.80;;;13.90;99.90;;;;;;4973159;28;20137;-60
2022/10/02 03:51:57;;;;;;;2.53;0.55;;;13.90;99.90;;;;;;4973429;28;20027;-58
2022/10/02 03:54:22;;;;;;;4.55;0.80;;;13.90;99.90;;;;;;4974584;28;20074;-59
2022/10/02 03:56:56;;;;;;;3.88;0.80;;;13.90;99.90;;;;;;4974345;28;20023;-59
2022/10/02 03:59:39;;;;;;;4.82;0.90;;;14.00;99.90;;;;;;4970613;28;20027;-59
2022/10/02 04:02:11;;;;;;;3.20;0.45;;;14.00;99.90;;;;;;4972425;28;20027;-58
2022/10/02 04:04:44;;;;;;;3.95;0.90;;;13.90;99.90;;;;;;4975748;28;20034;-59
2022/10/02 04:07:16;;;;;;;5.85;0.50;;;13.90;99.90;;;;;;4975612;28;20038;-58
2022/10/02 04:09:50;;;;;;;1.50;0.70;;;14.00;99.90;;;;;;4973177;28;20109;-59
2022/10/02 04:12:25;;;;;;;1.67;0.45;;;13.90;99.90;;;;;;4980190;28;20034;-59
2022/10/02 04:15:20;;;;;;;5.03;0.82;;;13.90;99.90;;;;;;4968869;28;20093;-59
2022/10/02 04:18:03;;;;;;;1.73;0.80;;;13.90;99.90;;;;;;4971341;28;20052;-59
2022/10/02 04:20:51;;;;;;;1.25;0.63;;;13.80;99.90;;;;;;4968965;28;20027;-59
2022/10/02 04:23:22;;;;;;;0.88;0.50;;;13.80;99.90;;;;;;4971910;28;20026;-60
2022/10/02 04:25:57;;;;;;;2.20;0.80;;;13.80;99.90;;;;;;4969963;28;20419;-59
2022/10/02 04:28:29;;;;;;;2.15;0.50;;;13.80;99.90;;;;;;4964675;28;20027;-58
2022/10/02 04:30:55;;;;;;;2.97;0.98;;;13.80;99.90;;;;;;4970426;28;20148;-59
2022/10/02 04:33:23;;;;;;;0.65;0.32;;;13.80;99.90;;;;;;4976390;28;20030;-59
2022/10/02 04:36:07;;;;;;;3.65;0.80;;;13.80;99.90;;;;;;4972201;28;20090;-58
2022/10/02 04:38:54;;;;;;;8.80;0.73;;;13.70;99.90;;;;;;4967272;28;20059;-59
2022/10/02 04:41:45;;;;;;;3.47;0.95;;;13.70;99.90;;;;;;4970158;28;20027;-58
2022/10/02 04:44:51;;;;;;;3.88;0.50;;;13.70;99.90;;;;;;4975889;28;20406;-59
2022/10/02 04:47:44;;;;;;;2.83;0.45;;;13.70;99.90;;;;;;4967016;28;20041;-59
2022/10/02 04:50:32;;;;;;;2.55;0.55;;;13.70;99.90;;;;;;4980504;28;20050;-58
2022/10/02 04:53:11;;;;;;;3.28;0.95;;;13.70;99.90;;;;;;4969609;28;20070;-59
2022/10/02 04:56:11;;;;;;;1.77;0.73;;;13.60;99.90;;;;;;4968816;28;20463;-60
2022/10/02 04:58:54;;;;;;;6.75;1.00;;;13.60;99.90;;;;;;4970461;28;20039;-60
2022/10/02 05:01:42;;;;;;;2.33;0.40;;;13.60;99.90;;;;;;4971051;28;20039;-60
2022/10/02 05:04:27;;;;;;;3.60;0.82;;;13.60;99.90;;;;;;4976083;28;20081;-59
2022/10/02 05:07:12;;;;;;;2.45;0.52;;;13.60;99.90;;;;;;4978385;28;20118;-60
2022/10/02 05:10:00;;;;;;;0.63;0.30;;;13.60;99.90;;;;;;4977754;28;20038;-59
2022/10/02 05:13:00;;;;;;;2.65;0.52;;;13.60;99.90;;;;;;4978786;28;20035;-60
2022/10/02 05:16:09;;;;;;;5.38;0.70;;;13.60;99.90;;;;;;4971646;28;20057;-57
2022/10/02 05:18:49;;;;;;;7.97;0.75;;;13.70;99.90;;;;;;4973456;28;20035;-58
2022/10/02 05:21:42;;;;;;;0.50;0.40;;;13.60;99.90;;;;;;4967150;28;20031;-59
2022/10/02 05:24:29;;;;;;;1.77;0.52;;;13.60;99.90;;;;;;4982219;28;20487;-59
2022/10/02 05:27:13;;;;;;;3.63;0.70;;;13.60;99.90;;;;;;4981096;28;20121;-60
2022/10/02 05:29:57;;;;;;;1.63;0.43;;;13.60;99.90;;;;;;4971165;28;20546;-57
2022/10/02 05:32:45;;;;;;;2.25;0.80;;;13.60;99.90;;;;;;4968368;28;20034;-60
2022/10/02 05:35:30;;;;;;;4.95;0.63;;;13.60;99.90;;;;;;4973952;28;20038;-59
2022/10/02 05:38:08;;;;;;;2.67;0.40;;;13.50;99.90;;;;;;4973306;28;20030;-60
2022/10/02 05:41:02;;;;;;;1.65;0.47;;;13.50;99.90;;;;;;4973175;28;20042;-58
2022/10/02 05:43:35;;;;;;;2.50;0.40;;;13.40;99.90;;;;;;4975627;28;20438;-59
2022/10/02 05:46:17;;;;;;;4.82;0.40;;;13.40;99.90;;;;;;4977529;28;20062;-59
2022/10/02 05:48:47;;;;;;;5.45;0.88;;;13.40;99.90;;;;;;4981864;28;20519;-59
2022/10/02 05:51:27;;;;;;;0.52;0.22;;;13.40;99.90;;;;;;4970954;28;20027;-59
2022/10/02 05:54:03;;;;;;;5.93;0.55;;;13.40;99.90;;;;;;4973141;28;20475;-59
2022/10/02 05:56:45;;;;;;;5.65;0.50;;;13.30;99.90;;;;;;4973150;28;20395;-58
2022/10/02 05:59:13;;;;;;;;;;;13.30;99.90;;;;;;4972846;28;20048;-59
2022/10/02 06:01:43;;;;;;;4.35;0.80;;;13.40;99.90;;;;;;4977134;28;19973;-59
2022/10/02 06:04:41;;;;;;;2.45;0.50;;;13.40;99.90;;;;;;4982961;28;20034;-58
2022/10/02 06:07:14;;;;;;;1.30;0.52;;;13.40;99.90;;;;;;4976948;28;20054;-60
2022/10/02 06:09:48;;;;;;;2.83;0.50;;;13.30;99.90;;;;;;4980749;28;20065;-59
2022/10/02 06:12:25;;;;;;;1.58;0.45;;;13.30;99.90;;;;;;4972330;28;20034;-59
2022/10/02 06:15:01;;;;;;;1.38;0.32;;;13.30;99.90;;;;;;4973013;28;20125;-58
2022/10/02 06:17:32;;;;;;;4.47;1.17;;;13.30;99.90;;;;;;4972293;28;20034;-59
2022/10/02 06:20:28;;;;;;;5.00;0.88;;;13.30;99.90;;;;;;4972562;28;20038;-59
2022/10/02 06:23:04;;;;;;;5.57;0.75;;;13.30;99.90;;;;;;4981747;28;20105;-59
2022/10/02 06:25:39;;;;;;;7.00;0.90;;;13.30;99.90;;;;;;4971209;28;20034;-58
2022/10/02 06:28:13;;;;;;;3.13;0.40;;;13.30;99.90;;;;;;4975958;28;20027;-58
2022/10/02 06:30:45;;;;;;;4.13;0.40;;;13.30;99.90;;;;;;4976485;28;20479;-58
2022/10/02 06:33:23;;;;;;;4.17;0.70;;;13.30;99.90;;;;;;4978604;28;20553;-59
2022/10/02 06:36:07;;;;;;;6.43;0.50;;;13.30;99.90;;;;;;4972508;28;20246;-59
2022/10/02 06:38:50;;;;;;;2.03;0.85;;;13.30;99.90;;;;;;4976071;28;20121;-58
2022/10/02 06:41:46;;;;;;;4.28;0.82;;;13.30;99.90;;;;;;4978438;28;20029;-59
2022/10/02 06:44:38;;;;;;;6.03;0.70;;;13.30;99.90;;;;;;4960098;28;20401;-59
2022/10/02 06:47:34;;;;;;;1.38;0.43;;;13.40;99.90;;;;;;4964789;28;20407;-59
2022/10/02 06:50:22;;;;;;;7.47;0.63;;;13.50;99.90;;;;;;4971184;28;20054;-58
2022/10/02 06:52:47;;;;;;;1.50;0.45;;;13.50;99.90;;;;;;4973089;28;20078;-58
2022/10/02 06:55:31;;;;;;;2.28;0.75;;;13.50;99.90;;;;;;4975385;28;20034;-58
2022/10/02 06:58:03;;;;;;;4.78;0.57;;;13.50;99.90;;;;;;4970643;28;20113;-59
2022/10/02 07:00:32;;;;;;;3.63;1.23;;;13.50;99.90;;;;;;4972819;28;20113;-59
2022/10/02 07:03:18;;;;;;;1.40;0.82;;;13.50;99.90;;;;;;4971064;28;20118;-59
2022/10/02 07:05:59;;;;;;;7.00;0.85;;;13.50;99.90;;;;;;4978414;28;20042;-59
2022/10/02 07:08:48;;;;;;;6.60;0.82;;;13.60;99.90;;;;;;4970712;28;20038;-59
2022/10/02 07:11:29;;;;;;;5.10;0.90;;;13.60;99.90;;;;;;4966613;28;20122;-59
2022/10/02 07:14:09;;;;;;;6.65;2.47;;;13.60;99.90;;;;;;4973576;28;20521;-59
2022/10/02 07:17:12;;;;;;;5.05;1.02;;;13.60;99.90;;;;;;4973848;28;20022;-60
2022/10/02 07:19:44;;;;;;;4.75;0.52;;;13.70;99.90;;;;;;4966232;28;20034;-58
2022/10/02 07:22:18;;;;;;;5.63;0.65;;;13.60;99.90;;;;;;4980862;28;20030;-58
2022/10/02 07:24:57;;;;;;;4.88;1.92;;;13.70;99.90;;;;;;4968374;28;20084;-61
2022/10/02 07:27:25;;;;;;;7.45;1.10;;;13.70;99.90;;;;;;4975242;28;20037;-58
2022/10/02 07:30:11;;;;;;;5.55;1.40;;;13.70;99.90;;;;;;4970894;28;20487;-58
2022/10/02 07:32:36;;;;;;;6.18;1.25;;;13.80;99.90;;;;;;4967271;28;20039;-59
2022/10/02 07:36:04;;;;;;;11.75;0.90;;;13.90;99.90;;;;;;4976695;28;20039;-59
2022/10/02 07:38:42;;;;;;;7.45;1.63;;;13.90;99.90;;;;;;4889383;29;20028;-61
2022/10/02 07:41:42;;;;;;;4.32;1.58;;;13.90;99.90;;;;;;4894218;29;20083;-59
2022/10/02 07:44:37;;;;;;;8.60;0.95;;;13.90;99.90;;;;;;4885758;29;20104;-60
2022/10/02 07:47:17;;;;;;;6.88;1.10;;;14.00;99.90;;;;;;4892280;29;20545;-59
2022/10/02 07:50:17;;;;;;;2.58;1.58;;;14.00;99.90;;;;;;4887718;29;20037;-60
2022/10/02 07:52:52;;;;;;;1.75;0.63;;;14.00;99.90;;;;;;4890535;29;20040;-59
2022/10/02 07:55:22;;;;;;;7.93;0.95;;;14.00;99.90;;;;;;4883337;29;20055;-60
2022/10/02 07:58:04;;;;;;;2.22;0.52;;;14.00;99.90;;;;;;4891126;29;20028;-60
2022/10/02 08:00:39;;;;;;;5.57;0.93;;;14.10;99.90;;;;;;4889433;29;20102;-62
2022/10/02 08:03:12;;;;;;;3.58;1.13;;;14.00;99.90;;;;;;4886195;29;20032;-60
2022/10/02 08:05:45;;;;;;;5.90;0.80;;;13.90;99.90;;;;;;4891968;29;20041;-59
2022/10/02 08:08:16;;;;;;;6.93;0.82;;;14.00;99.90;;;;;;4891149;29;20520;-59
2022/10/02 08:10:46;;;;;;;3.72;0.85;;;14.00;99.90;;;;;;4888464;29;20028;-58
2022/10/02 08:13:23;;;;;;;9.82;3.60;;;14.00;99.90;;;;;;4957189;28;20047;-58
2022/10/02 08:15:53;;;;;;;4.80;0.70;;;14.00;99.90;;;;;;4970654;28;20401;-59
2022/10/02 08:18:26;;;;;;;5.03;0.75;;;14.00;99.90;;;;;;4969659;28;20113;-60
2022/10/02 08:20:52;;;;;;;6.20;1.77;;;14.00;99.90;;;;;;4971766;28;20126;-59
2022/10/02 08:23:20;;;;;;;10.52;1.88;;;14.00;99.90;;;;;;4973293;28;20030;-58
2022/10/02 08:25:58;;;;;;;9.95;1.63;;;14.00;99.90;;;;;;4968563;28;20115;-59
2022/10/02 08:28:25;;;;;;;2.83;1.08;;;14.00;99.90;;;;;;4970718;28;20030;-59
2022/10/02 08:30:51;;;;;;;3.80;1.30;;;14.10;99.90;;;;;;4966252;28;20034;-59
2022/10/02 08:33:19;;;;;;;4.32;0.80;;;14.10;99.90;;;;;;4974547;28;20034;-60
2022/10/02 08:35:49;;;;;;;4.13;0.60;;;14.10;99.90;;;;;;4969551;28;20031;-60
2022/10/02 08:38:21;;;;;;;4.63;1.27;;;14.00;99.90;;;;;;4967114;28;20038;-59
2022/10/02 08:40:47;;;;;;;4.45;1.27;;;14.10;99.90;;;;;;4969526;28;20043;-58
2022/10/02 08:43:43;;;;;;;2.63;0.90;;;14.10;99.90;;;;;;4965349;28;20055;-59
2022/10/02 08:46:47;;;;;;;6.75;0.93;;;14.10;99.90;;;;;;4965341;28;20030;-59
2022/10/02 08:50:02;;;;;;;3.28;0.70;;;14.00;99.90;;;;;;4971934;28;20468;-59
2022/10/02 08:52:57;;;;;;;5.03;1.05;;;14.00;99.90;;;;;;4953506;28;20045;-60
2022/10/02 08:56:03;;;;;;;1.38;0.57;;;14.00;99.90;;;;;;4966953;28;20402;-58
2022/10/02 08:58:49;;;;;;;10.18;1.50;;;13.90;99.90;;;;;;4956836;28;20030;-60
2022/10/02 09:01:34;;;;;;;7.28;1.25;;;13.90;99.90;;;;;;4970565;28;20034;-59
2022/10/02 09:04:09;;;;;;;6.43;1.33;;;13.90;99.90;;;;;;4980001;28;20064;-59
2022/10/02 09:07:02;;;;;;;3.13;1.15;;;13.80;99.90;;;;;;4964079;28;20038;-59
2022/10/02 09:09:45;;;;;;;3.38;1.33;;;13.80;99.90;;;;;;4967984;28;20034;-58
2022/10/02 09:12:36;;;;;;;3.40;1.00;;;13.70;99.90;;;;;;4969220;28;20483;-59
2022/10/02 09:15:21;;;;;;;2.50;1.05;;;13.70;99.90;;;;;;4965398;28;20039;-59
2022/10/02 09:18:13;;;;;;;3.65;0.73;;;13.70;99.90;;;;;;4974612;28;20039;-59
2022/10/02 09:20:44;;;;;;;4.35;1.25;;;13.60;99.90;;;;;;4966159;28;20034;-58
2022/10/02 09:23:25;;;;;;;4.03;0.90;;;13.60;99.90;;;;;;4971084;28;20038;-59
2022/10/02 09:26:13;;;;;;;3.28;1.00;;;13.60;99.90;;;;;;4967940;28;20019;-58
2022/10/02 09:28:41;;;;;;;5.10;2.00;;;13.70;99.90;;;;;;4962385;28;20034;-58
2022/10/02 09:32:02;;;;;;;4.80;1.08;;;13.70;99.90;;;;;;4972301;28;20038;-58
2022/10/02 09:34:37;;;;;;;5.05;0.98;;;13.70;99.90;;;;;;4936787;29;20136;-59
2022/10/02 09:37:07;;;;;;;3.88;1.10;;;13.70;99.90;;;;;;4936897;29;20138;-60
2022/10/02 09:40:12;;;;;;;5.68;2.55;;;13.60;99.90;;;;;;4932909;29;20082;-60
2022/10/02 09:42:46;;;;;;;3.65;1.50;;;13.60;99.90;;;;;;4901731;29;20051;-61
2022/10/02 09:45:35;;;;;;;4.90;1.10;;;13.70;99.90;;;;;;4932701;29;20740;-59
2022/10/02 09:48:18;;;;;;;6.40;1.10;;;13.60;99.90;;;;;;4938673;29;20058;-60
2022/10/02 09:50:59;;;;;;;5.55;1.38;;;13.60;99.90;;;;;;4935017;29;20503;-59
2022/10/02 09:53:43;;;;;;;2.53;1.00;;;13.60;99.90;;;;;;4931521;28;20054;-60
2022/10/02 09:56:30;;;;;;;3.45;0.93;;;13.70;99.90;;;;;;4942223;29;20046;-60
2022/10/02 09:59:15;;;;;;;9.52;1.40;;;13.80;99.90;;;;;;4933283;29;20134;-59
2022/10/02 10:01:44;;;;;;;1.38;0.55;;;13.80;99.90;;;;;;4929397;29;20065;-58
2022/10/02 10:04:21;;;;;;;2.15;0.70;;;13.80;99.90;;;;;;4935391;29;20094;-59
2022/10/02 10:06:56;;;;;;;4.90;0.90;;;13.80;99.90;;;;;;4934069;29;20039;-59
2022/10/02 10:10:03;;;;;;;2.90;1.27;;;13.80;99.90;;;;;;4946629;28;20039;-59
2022/10/02 10:12:48;;;;;;;5.93;1.20;;;13.80;99.90;;;;;;4947960;28;20396;-58
2022/10/02 10:15:28;;;;;;;5.78;1.65;;;13.90;99.90;;;;;;4954414;28;20436;-59
2022/10/02 10:18:16;;;;;;;2.40;0.90;;;14.00;99.90;;;;;;4960161;28;20034;-59
2022/10/02 10:21:19;;;;;;;3.28;1.20;;;14.10;99.90;;;;;;4949356;28;20034;-59
2022/10/02 10:23:51;;;;;;;4.63;1.55;;;14.20;99.90;;;;;;4950570;28;20073;-59
2022/10/02 10:26:33;;;;;;;3.65;0.90;;;14.40;99.90;;;;;;4951664;28;20534;-58
2022/10/02 10:29:21;;;;;;;2.63;0.70;;;14.50;99.90;;;;;;4947967;28;20106;-61
2022/10/02 10:31:52;;;;;;;4.05;1.15;;;14.60;99.90;;;;;;4958580;28;20110;-59
2022/10/02 10:34:30;;;;;;;1.83;0.82;;;14.80;99.90;;;;;;4956051;28;20042;-58
2022/10/02 10:40:01;;;;;;;2.72;1.58;;;14.90;99.90;;;;;;4947321;28;20045;-60
2022/10/02 10:42:49;;;;;;;2.88;0.85;;;14.90;99.90;;;;;;4956589;28;20042;-58
2022/10/02 10:45:39;;;;;;;5.05;1.20;;;15.10;99.90;;;;;;4967665;28;20114;-60
2022/10/02 10:48:29;;;;;;;2.25;1.10;;;15.30;99.90;;;;;;4969354;28;20031;-58
2022/10/02 10:50:59;;;;;;;3.15;0.82;;;15.50;99.90;;;;;;4971748;28;20026;-59
2022/10/02 10:53:48;;;;;;;3.55;1.33;;;15.50;99.90;;;;;;4978047;28;20038;-57
2022/10/02 10:56:35;;;;;;;4.43;0.90;;;15.60;99.90;;;;;;4969021;28;20026;-57
2022/10/02 10:59:26;;;;;;;4.70;1.30;;;15.60;99.90;;;;;;4969209;28;20023;-60
2022/10/02 11:02:05;;;;;;;4.95;1.98;;;15.70;99.90;;;;;;4972171;28;20517;-59
2022/10/02 11:05:05;;;;;;;5.63;3.13;;;15.70;99.90;;;;;;4968487;28;20451;-59
2022/10/02 11:07:39;;;;;;;2.13;1.10;;;15.60;99.90;;;;;;4968230;28;20027;-58
2022/10/02 11:10:36;;;;;;;2.92;1.05;;;15.70;99.90;;;;;;4987741;28;20121;-59
2022/10/02 11:13:31;;;;;;;4.15;0.90;;;15.80;99.90;;;;;;4973881;28;20034;-60
2022/10/02 11:16:06;;;;;;;3.80;0.98;;;15.90;99.90;;;;;;4967205;28;20035;-59
2022/10/02 11:19:01;;;;;;;3.90;0.90;;;16.10;99.90;;;;;;4968024;28;20077;-60
2022/10/02 11:21:40;;;;;;;8.52;1.13;;;16.20;99.90;;;;;;4972646;28;20025;-61
2022/10/02 11:24:19;;;;;;;3.53;0.85;;;16.40;99.90;;;;;;4969093;28;20542;-59
2022/10/02 11:27:09;;;;;;;3.50;0.90;;;16.50;99.90;;;;;;4973918;28;20022;-59
2022/10/02 11:29:55;;;;;;;2.15;0.85;;;16.50;99.90;;;;;;4969744;28;20042;-59
2022/10/02 11:32:45;;;;;;;3.08;0.77;;;16.60;99.90;;;;;;4978974;28;20022;-59
2022/10/02 11:35:31;;;;;;;4.53;1.35;;;16.40;99.90;;;;;;4969270;28;20453;-60
2022/10/02 11:38:02;;;;;;;2.83;0.38;;;16.20;99.90;;;;;;4977826;28;20027;-60
2022/10/02 11:40:50;;;;;;;0.90;0.50;;;16.20;99.90;;;;;;4969131;28;20042;-59
2022/10/02 11:43:21;;;;;;;1.77;0.50;;;16.50;99.90;;;;;;4970146;28;20038;-59
2022/10/02 11:45:58;;;;;;;2.60;1.08;;;17.10;99.90;;;;;;4973485;28;20066;-59
2022/10/02 11:48:42;;;;;;;3.83;0.93;;;17.50;99.90;;;;;;4971594;28;20086;-59
2022/10/02 11:51:29;;;;;;;3.00;0.30;;;18.20;99.90;;;;;;4964917;28;20045;-59
2022/10/02 11:54:00;;;;;;;3.85;0.75;;;18.70;99.90;;;;;;4976743;28;20038;-59
2022/10/02 11:56:37;;;;;;;6.00;1.15;;;19.20;99.90;;;;;;4971164;28;20113;-59
2022/10/02 11:59:28;;;;;;;6.95;1.00;;;19.50;99.90;;;;;;4981062;28;20026;-59
2022/10/02 12:02:00;;;;;;;5.28;1.02;;;19.70;99.90;;;;;;4964235;28;20125;-59
2022/10/02 12:04:28;;;;;;;;;;;19.80;99.90;;;;;;4973668;28;20070;-59
2022/10/02 12:07:04;;;;;;;3.90;1.27;;;19.30;99.90;;;;;;4974251;28;20293;-59
2022/10/02 12:09:55;;;;;;;3.28;0.90;;;18.60;99.90;;;;;;4972473;28;20095;-60
2022/10/02 12:12:40;;;;;;;2.30;0.70;;;18.50;99.90;;;;;;4966154;28;20018;-59
2022/10/02 12:15:23;;;;;;;2.40;0.93;;;18.60;99.90;;;;;;4974043;28;20047;-59
2022/10/02 12:18:00;;;;;;;4.88;1.27;;;18.50;99.90;;;;;;4977330;28;20034;-59
2022/10/02 12:27:01;;;;;;;3.00;0.80;;;20.30;99.90;;;;;;4974993;28;19921;-59
2022/10/02 12:29:48;;;;;;;3.83;1.00;;;20.60;99.90;;;;;;4981806;28;20030;-59
2022/10/02 12:32:35;;;;;;;2.65;0.50;;;20.10;99.90;;;;;;4968399;28;20422;-59
2022/10/02 12:35:15;;;;;;;0.55;0.50;;;19.80;99.90;;;;;;4974250;28;20051;-59
2022/10/02 12:37:53;;;;;;;5.50;0.90;;;19.90;99.90;;;;;;4971633;28;20023;-59
2022/10/02 12:40:42;;;;;;;2.47;0.60;;;21.00;99.90;;;;;;4972013;28;20065;-58
2022/10/02 12:43:15;;;;;;;5.60;0.82;;;21.10;99.90;;;;;;4975158;28;20048;-59
2022/10/02 12:45:50;;;;;;;1.95;0.70;;;20.70;99.90;;;;;;4967288;28;20049;-60
2022/10/02 12:48:38;;;;;;;1.92;0.90;;;20.50;99.90;;;;;;4962953;28;20033;-59
2022/10/02 12:51:27;;;;;;;1.98;0.68;;;20.50;99.90;;;;;;4969994;28;20394;-58
2022/10/02 12:54:17;;;;;;;5.22;1.33;;;20.80;99.90;;;;;;4973394;28;20050;-59
2022/10/02 12:57:07;;;;;;;1.70;0.55;;;22.40;99.90;;;;;;4967061;28;20031;-59
2022/10/02 12:59:50;;;;;;;2.00;0.68;;;22.90;99.90;;;;;;4968343;28;20511;-59
2022/10/02 13:02:19;;;;;;;2.80;1.00;;;23.20;99.90;;;;;;4975814;28;20027;-58
2022/10/02 13:05:02;;;;;;;2.65;0.70;;;23.50;99.90;;;;;;4979278;28;20038;-60
2022/10/02 13:07:59;;;;;;;2.47;0.70;;;23.30;99.90;;;;;;4969451;28;20380;-59
2022/10/02 13:10:29;;;;;;;3.70;0.50;;;22.10;99.90;;;;;;4977800;28;20062;-58
2022/10/02 13:13:25;;;;;;;2.38;0.47;;;22.40;99.90;;;;;;4980574;28;20059;-60
2022/10/02 13:16:09;;;;;;;3.10;0.60;;;23.30;99.90;;;;;;4972478;28;20050;-59
2022/10/02 13:19:02;;;;;;;4.35;0.50;;;23.80;99.90;;;;;;4970144;28;20042;-59
2022/10/02 13:22:06;;;;;;;2.97;0.95;;;24.00;99.90;;;;;;4971857;28;20037;-58
2022/10/02 13:24:31;;;;;;;3.70;0.82;;;22.70;99.90;;;;;;4945343;29;20035;-59
2022/10/02 13:27:18;;;;;;;3.85;0.60;;;23.30;99.90;;;;;;4948920;28;20043;-58
2022/10/02 13:29:58;;;;;;;2.58;0.70;;;24.20;99.90;;;;;;4951871;29;20031;-60
2022/10/02 13:32:39;;;;;;;3.60;0.90;;;24.60;99.90;;;;;;4943721;29;20118;-59
2022/10/02 13:35:23;;;;;;;3.67;0.90;;;24.80;99.90;;;;;;4950642;28;20074;-59
2022/10/02 13:38:18;;;;;;;2.17;0.55;;;24.90;99.90;;;;;;4950881;28;20027;-59
2022/10/02 13:41:02;;;;;;;1.05;0.60;;;23.70;99.90;;;;;;4951745;29;20046;-59
2022/10/02 13:43:34;;;;;;;2.38;0.93;;;21.90;99.90;;;;;;4949514;28;20099;-59
2022/10/02 13:46:04;;;;;;;3.05;1.00;;;20.60;99.90;;;;;;4950376;29;20405;-59
2022/10/02 13:48:40;;;;;;;5.40;1.20;;;19.90;99.90;;;;;;4948361;28;20046;-59
2022/10/02 13:51:15;;;;;;;5.30;0.68;;;20.70;99.90;;;;;;4950178;28;20126;-59
2022/10/02 13:53:51;;;;;;;4.93;1.33;;;22.10;99.90;;;;;;4944437;29;20046;-59
2022/10/02 13:56:28;;;;;;;4.95;0.98;;;23.60;99.90;;;;;;4937015;28;20039;-59
2022/10/02 13:59:14;;;;;;;1.77;0.70;;;24.80;99.90;;;;;;4948343;28;20027;-59
2022/10/02 14:01:51;;;;;;;2.40;0.85;;;25.40;99.90;;;;;;4968269;28;20126;-59
2022/10/02 14:04:35;;;;;;;1.73;0.60;;;25.50;99.60;;;;;;4969770;28;20037;-59
2022/10/02 14:07:07;;;;;;;1.55;0.50;;;24.50;99.90;;;;;;4988824;28;20092;-58